Time;durP1;ratioP1;P1;durP2;ratioP2;P2;SDS_P1;SDS_P2;PMS_P1;PMS_P2;Temp;Humidity;BMP_temperature;BMP_pressure;BME280_temperature;BME280_humidity;BME280_pressure;Samples;Min_cycle;Max_cycle;Signal;HPM_P1;HPM_P2
2023/05/18 08:06:36;;;;;;;14.60;5.00;;;;;;;10.20;70.68;102690.25;5130292;27;20373;-68
2023/05/18 08:09:02;;;;;;;12.65;4.63;;;;;;;10.21;68.38;102687.38;5130608;28;20111;-66
2023/05/18 08:11:27;;;;;;;16.38;5.10;;;;;;;10.22;68.81;102693.63;5123084;28;20431;-66
2023/05/18 08:13:52;;;;;;;15.65;5.07;;;;;;;10.21;67.48;102684.66;5128951;28;20031;-67
2023/05/18 08:16:18;;;;;;;9.23;5.13;;;;;;;10.25;68.41;102685.13;5129377;28;20104;-67
2023/05/18 08:18:43;;;;;;;12.10;5.32;;;;;;;10.34;66.96;102688.69;5114727;28;20474;-66
2023/05/18 08:21:09;;;;;;;12.65;5.45;;;;;;;10.34;67.27;102691.38;5117383;28;20030;-73
2023/05/18 08:23:35;;;;;;;15.13;5.20;;;;;;;10.38;67.28;102684.59;5129594;28;20023;-69
2023/05/18 08:26:02;;;;;;;14.75;5.07;;;;;;;10.46;66.16;102685.41;5129150;28;20019;-68
2023/05/18 08:28:28;;;;;;;14.80;4.63;;;;;;;10.50;63.61;102690.47;5108243;28;20107;-69
2023/05/18 08:30:53;;;;;;;14.93;5.22;;;;;;;10.60;65.60;102682.94;5111365;28;20110;-69
2023/05/18 08:33:18;;;;;;;12.95;4.65;;;;;;;10.67;65.25;102685.75;5127167;28;20057;-70
2023/05/18 08:35:44;;;;;;;14.27;4.82;;;;;;;10.63;64.17;102674.47;5119268;28;20036;-67
2023/05/18 08:38:09;;;;;;;14.85;4.85;;;;;;;10.72;65.16;102667.97;5113297;28;20024;-68
2023/05/18 08:40:42;;;;;;;12.85;4.70;;;;;;;10.89;65.35;102668.66;5109411;28;20035;-68
2023/05/18 08:43:19;;;;;;;13.05;4.25;;;;;;;11.06;65.54;102666.63;5129536;28;20490;-68
2023/05/18 08:46:05;;;;;;;13.10;4.30;;;;;;;11.23;62.44;102659.22;5110258;28;20465;-73
2023/05/18 08:48:32;;;;;;;12.60;4.60;;;;;;;11.29;59.85;102666.59;5088973;28;20091;-69
2023/05/18 08:51:00;;;;;;;11.60;4.47;;;;;;;11.31;61.31;102655.56;5106164;28;20039;-69
2023/05/18 08:53:25;;;;;;;11.30;4.47;;;;;;;11.36;59.71;102653.13;5106769;28;20032;-69
2023/05/18 08:55:53;;;;;;;11.27;4.00;;;;;;;11.50;60.86;102659.59;5109790;28;20452;-68
2023/05/18 08:58:20;;;;;;;16.58;4.55;;;;;;;11.57;58.63;102667.84;5113229;28;20486;-67
2023/05/18 09:00:45;;;;;;;14.27;4.30;;;;;;;11.49;58.67;102658.75;5099626;28;20031;-68
2023/05/18 09:03:12;;;;;;;14.48;4.90;;;;;;;11.51;58.23;102664.81;5107765;28;20023;-68
2023/05/18 09:05:40;;;;;;;13.65;4.50;;;;;;;11.51;59.04;102650.44;5113774;28;20497;-69
2023/05/18 09:08:06;;;;;;;12.90;4.03;;;;;;;11.62;60.87;102647.25;5097338;28;21053;-69
2023/05/18 09:10:32;;;;;;;13.45;4.32;;;;;;;11.66;56.66;102656.69;5094141;28;20062;-69
2023/05/18 09:12:58;;;;;;;11.68;4.60;;;;;;;11.68;57.59;102653.78;5101561;28;20044;-67
2023/05/18 09:15:25;;;;;;;11.98;3.78;;;;;;;11.66;56.78;102653.16;5108741;28;20036;-71
2023/05/18 09:17:50;;;;;;;17.77;4.72;;;;;;;11.75;57.85;102646.59;5076648;28;20058;-69
2023/05/18 09:20:17;;;;;;;12.05;4.30;;;;;;;11.76;57.36;102639.28;5094397;28;20032;-71
2023/05/18 09:22:42;;;;;;;12.70;4.22;;;;;;;11.84;56.22;102640.03;5074402;28;20058;-69
2023/05/18 09:25:09;;;;;;;15.63;4.75;;;;;;;11.96;56.08;102642.28;5093742;28;20036;-70
2023/05/18 09:27:35;;;;;;;13.57;4.43;;;;;;;11.89;54.00;102647.59;5090518;28;20070;-67
2023/05/18 09:30:01;;;;;;;15.18;4.10;;;;;;;11.94;54.00;102641.63;5095088;28;20024;-68
2023/05/18 09:32:26;;;;;;;12.23;3.58;;;;;;;12.08;55.26;102646.19;5092224;28;20036;-67
2023/05/18 09:34:52;;;;;;;13.80;4.32;;;;;;;12.14;54.36;102648.13;5106053;28;20031;-69
2023/05/18 09:37:19;;;;;;;12.43;4.00;;;;;;;12.15;53.28;102643.53;5099286;28;20032;-68
2023/05/18 09:39:57;;;;;;;12.13;3.97;;;;;;;12.27;54.36;102638.47;5093685;28;20087;-68
2023/05/18 09:42:36;;;;;;;11.85;4.10;;;;;;;12.33;53.96;102643.94;5092845;28;20078;-68
2023/05/18 09:45:03;;;;;;;11.68;3.92;;;;;;;12.38;53.28;102636.06;5090410;28;20082;-69
2023/05/18 09:47:28;;;;;;;12.48;3.60;;;;;;;12.46;53.17;102637.81;5094729;28;20063;-69
2023/05/18 09:49:56;;;;;;;11.80;3.85;;;;;;;12.51;53.19;102634.53;5094131;28;20067;-68
2023/05/18 09:52:21;;;;;;;12.90;4.10;;;;;;;12.63;53.24;102641.09;5094796;28;20169;-69
2023/05/18 09:54:57;;;;;;;14.27;4.18;;;;;;;12.67;54.58;102636.16;5094673;28;20123;-67
2023/05/18 09:57:23;;;;;;;14.02;4.18;;;;;;;12.58;52.62;102625.41;5094924;28;20020;-69
2023/05/18 09:59:55;;;;;;;11.70;4.07;;;;;;;12.60;52.17;102627.91;5091571;28;20024;-67
2023/05/18 10:02:24;;;;;;;12.32;4.40;;;;;;;12.58;52.67;102622.69;5106258;27;20097;-68
2023/05/18 10:04:49;;;;;;;11.82;3.85;;;;;;;12.62;51.40;102625.00;5114651;28;20047;-69
2023/05/18 10:07:16;;;;;;;9.82;3.90;;;;;;;12.64;52.18;102626.50;5114800;28;20497;-69
2023/05/18 10:09:42;;;;;;;13.45;4.18;;;;;;;12.63;52.05;102621.28;5114993;28;20051;-69
2023/05/18 10:12:12;;;;;;;10.68;3.95;;;;;;;12.71;53.03;102623.84;5114931;28;20363;-69
2023/05/18 10:14:39;;;;;;;11.23;4.45;;;;;;;12.66;52.03;102627.13;5101884;28;20054;-69
2023/05/18 10:17:05;;;;;;;12.18;4.40;;;;;;;12.69;51.73;102623.19;5089821;28;20421;-69
2023/05/18 10:19:33;;;;;;;14.88;4.53;;;;;;;12.76;51.31;102624.09;5090187;28;20039;-69
2023/05/18 10:22:01;;;;;;;10.13;4.05;;;;;;;12.71;51.65;102615.69;5099146;28;20032;-70
2023/05/18 10:24:28;;;;;;;9.80;3.65;;;;;;;12.89;52.37;102616.06;5089696;28;20036;-71
2023/05/18 10:27:00;;;;;;;11.25;4.03;;;;;;;13.06;52.85;102613.06;5093834;28;20024;-76
2023/05/18 10:29:25;;;;;;;;;;;;;;;13.15;53.30;102620.00;5091762;28;20086;-70
2023/05/18 10:31:54;;;;;;;12.70;4.20;;;;;;;13.13;50.02;102616.63;5092388;28;19912;-73
2023/05/18 10:34:23;;;;;;;13.82;3.80;;;;;;;13.19;50.41;102615.00;5093622;28;20485;-76
2023/05/18 10:36:49;;;;;;;12.75;4.15;;;;;;;13.24;50.52;102607.94;5093807;28;20024;-69
2023/05/18 10:39:16;;;;;;;10.27;3.83;;;;;;;13.35;50.20;102609.28;5109734;28;20059;-69
2023/05/18 10:41:43;;;;;;;13.45;4.07;;;;;;;13.29;50.42;102602.72;5093939;28;20028;-69
2023/05/18 10:44:09;;;;;;;15.10;4.85;;;;;;;13.17;49.61;102603.50;5093733;28;20042;-69
2023/05/18 10:46:35;;;;;;;14.95;4.20;;;;;;;13.15;50.59;102600.97;5092369;28;20074;-73
2023/05/18 10:49:04;;;;;;;9.15;3.92;;;;;;;13.02;49.35;102606.31;5090487;28;20028;-70
2023/05/18 10:51:30;;;;;;;12.85;4.10;;;;;;;13.06;50.69;102594.03;5109468;28;20404;-75
2023/05/18 10:54:10;;;;;;;10.85;4.15;;;;;;;13.16;51.23;102597.19;5075391;28;20032;-74
2023/05/18 10:56:38;;;;;;;11.82;4.07;;;;;;;13.19;50.39;102604.97;5093775;28;20111;-72
2023/05/18 10:59:05;;;;;;;13.07;4.38;;;;;;;13.26;49.59;102600.41;5092192;28;20055;-69
2023/05/18 11:01:31;;;;;;;13.70;4.47;;;;;;;13.40;49.68;102600.53;5097818;28;20054;-72
2023/05/18 11:04:00;;;;;;;14.85;4.40;;;;;;;13.45;49.84;102600.75;5106731;28;20059;-71
2023/05/18 11:06:26;;;;;;;13.20;4.85;;;;;;;13.56;50.41;102602.91;5092989;28;20040;-71
2023/05/18 11:08:51;;;;;;;12.90;4.10;;;;;;;13.50;49.78;102590.13;5092265;28;20036;-70
2023/05/18 11:11:17;;;;;;;10.13;3.63;;;;;;;13.51;48.78;102590.94;5093122;28;20643;-70
2023/05/18 11:13:46;;;;;;;9.90;4.10;;;;;;;13.47;49.14;102601.41;5093394;28;20028;-69
2023/05/18 11:16:11;;;;;;;14.20;4.45;;;;;;;13.46;49.63;102591.56;5093357;28;20036;-73
2023/05/18 11:19:00;;;;;;;10.80;4.50;;;;;;;13.53;50.24;102597.88;5092546;28;20088;-67
2023/05/18 11:21:26;;;;;;;13.00;4.55;;;;;;;13.41;49.25;102594.06;5092384;28;20043;-69
2023/05/18 11:24:23;;;;;;;9.47;4.33;;;;;;;13.37;50.40;102587.31;5092908;28;20047;-70
2023/05/18 11:26:54;;;;;;;13.15;4.53;;;;;;;13.23;49.77;102589.94;5093018;28;20339;-70
2023/05/18 11:29:22;;;;;;;9.70;4.57;;;;;;;13.35;50.35;102581.25;5091543;28;20119;-71
2023/05/18 11:31:57;;;;;;;12.23;4.47;;;;;;;13.49;50.58;102593.03;5092286;28;20042;-68
2023/05/18 11:34:44;;;;;;;14.60;4.97;;;;;;;13.38;49.01;102581.69;5091574;28;20028;-70
2023/05/18 11:37:11;;;;;;;12.57;4.43;;;;;;;13.44;49.75;102586.31;5093079;28;20042;-71
2023/05/18 11:39:37;;;;;;;12.57;4.60;;;;;;;13.45;50.39;102588.00;5074528;28;20429;-70
2023/05/18 11:42:08;;;;;;;9.35;4.72;;;;;;;13.43;49.04;102594.69;5092757;28;20028;-71
2023/05/18 11:44:33;;;;;;;13.10;5.10;;;;;;;13.45;49.07;102581.72;5092898;28;20028;-69
2023/05/18 11:47:09;;;;;;;10.82;5.03;;;;;;;13.54;48.89;102574.22;5092603;28;20053;-72
2023/05/18 11:49:45;;;;;;;15.68;5.10;;;;;;;13.70;50.28;102562.16;5090405;28;20032;-69
2023/05/18 11:52:19;;;;;;;15.98;4.80;;;;;;;13.85;49.88;102573.72;5092591;28;20519;-73
2023/05/18 11:54:47;;;;;;;12.35;4.60;;;;;;;14.06;50.13;102577.34;5092822;28;20109;-68
2023/05/18 11:57:15;;;;;;;11.48;4.10;;;;;;;14.07;47.73;102573.56;5092830;28;20089;-72
2023/05/18 11:59:45;;;;;;;13.55;5.30;;;;;;;14.25;49.33;102568.38;5092765;28;20070;-74
2023/05/18 12:02:17;;;;;;;14.90;4.80;;;;;;;14.32;48.27;102557.47;5097376;28;20448;-75
2023/05/18 12:04:51;;;;;;;12.15;4.40;;;;;;;14.43;47.89;102561.47;5090657;28;20083;-73
2023/05/18 12:07:18;;;;;;;10.75;4.53;;;;;;;14.27;45.76;102552.66;5109344;28;20024;-73
2023/05/18 12:09:45;;;;;;;14.38;4.28;;;;;;;14.57;47.33;102557.69;5092380;28;20459;-70
2023/05/18 12:12:12;;;;;;;12.32;4.55;;;;;;;14.57;44.73;102554.97;5091920;28;20032;-73
2023/05/18 12:14:41;;;;;;;12.68;4.25;;;;;;;14.59;46.47;102558.31;5092029;28;20699;-70
2023/05/18 12:17:06;;;;;;;11.57;4.32;;;;;;;14.60;46.84;102554.56;5091703;28;20432;-71
2023/05/18 12:19:43;;;;;;;11.55;4.50;;;;;;;14.70;46.93;102557.72;5091306;28;20112;-76
2023/05/18 12:22:09;;;;;;;13.38;4.25;;;;;;;14.67;45.90;102558.16;5091872;28;20399;-72
2023/05/18 12:24:36;;;;;;;11.43;4.28;;;;;;;14.72;45.17;102554.78;5091973;28;20028;-72
2023/05/18 12:27:03;;;;;;;13.45;4.45;;;;;;;14.79;45.14;102560.22;5090591;28;20047;-72
2023/05/18 12:29:29;;;;;;;11.05;4.15;;;;;;;15.03;46.39;102554.09;5092170;28;20039;-66
2023/05/18 12:31:54;;;;;;;12.80;4.85;;;;;;;15.17;46.35;102544.00;5091918;28;20028;-68
2023/05/18 12:34:20;;;;;;;12.15;4.32;;;;;;;15.41;46.47;102541.59;5091238;28;20055;-66
2023/05/18 12:36:54;;;;;;;11.95;4.50;;;;;;;15.41;45.71;102538.88;5092070;28;20028;-74
2023/05/18 12:39:20;;;;;;;14.15;4.30;;;;;;;15.59;44.80;102543.63;5087065;28;20063;-76
2023/05/18 12:41:46;;;;;;;7.90;4.20;;;;;;;15.71;45.97;102541.88;5087081;28;20137;-70
2023/05/18 12:44:11;;;;;;;15.23;4.63;;;;;;;15.84;44.63;102545.63;5088214;28;20043;-66
2023/05/18 12:46:37;;;;;;;12.18;4.45;;;;;;;15.86;43.80;102544.34;5091972;28;20038;-73
2023/05/18 12:49:03;;;;;;;12.60;4.53;;;;;;;15.93;44.65;102547.06;5091547;28;20024;-72
2023/05/18 12:51:34;;;;;;;13.73;4.45;;;;;;;16.10;44.64;102540.00;5092598;28;20071;-71
2023/05/18 12:54:00;;;;;;;16.70;5.40;;;;;;;16.03;45.21;102535.63;5095521;28;20020;-75
2023/05/18 12:56:26;;;;;;;8.57;3.97;;;;;;;16.22;45.52;102537.38;5095924;28;20111;-69
2023/05/18 12:58:58;;;;;;;13.00;4.28;;;;;;;16.21;44.96;102540.34;5095227;28;20114;-71
2023/05/18 13:01:26;;;;;;;9.70;4.25;;;;;;;16.20;43.54;102542.25;5098375;27;20043;-69
2023/05/18 13:03:59;;;;;;;9.80;3.78;;;;;;;16.11;42.98;102535.38;5116641;28;20038;-70
2023/05/18 13:06:24;;;;;;;10.70;4.40;;;;;;;15.94;40.86;102532.31;5097472;28;20506;-74
2023/05/18 13:08:53;;;;;;;12.75;4.45;;;;;;;15.95;41.20;102532.09;5116349;28;20035;-69
2023/05/18 13:11:23;;;;;;;10.80;4.30;;;;;;;16.10;43.16;102534.53;5116352;28;20027;-75
2023/05/18 13:14:03;;;;;;;13.48;4.63;;;;;;;16.19;43.31;102531.53;5098797;28;20036;-74
2023/05/18 13:16:29;;;;;;;10.55;4.10;;;;;;;16.12;43.37;102524.25;5095846;28;20034;-71
2023/05/18 13:18:56;;;;;;;10.05;4.28;;;;;;;16.25;43.16;102520.56;5095720;28;20353;-73
2023/05/18 13:21:21;;;;;;;11.75;4.55;;;;;;;16.41;42.89;102513.72;5094875;28;20101;-70
2023/05/18 13:23:47;;;;;;;9.80;4.30;;;;;;;16.40;42.10;102512.03;5095503;28;20031;-71
2023/05/18 13:26:13;;;;;;;11.32;4.28;;;;;;;16.28;41.79;102517.38;5095518;28;20140;-69
2023/05/18 13:28:38;;;;;;;11.40;4.20;;;;;;;16.39;41.94;102512.25;5112715;27;20039;-73
2023/05/18 13:31:03;;;;;;;11.30;4.43;;;;;;;16.46;41.26;102508.41;5095379;28;20032;-75
2023/05/18 13:33:29;;;;;;;9.07;4.25;;;;;;;16.68;40.94;102501.69;5095064;28;20048;-74
2023/05/18 13:35:54;;;;;;;12.50;3.95;;;;;;;16.66;41.03;102501.91;5095154;28;20024;-71
2023/05/18 13:38:19;;;;;;;11.43;4.32;;;;;;;16.75;42.08;102499.72;5110247;28;20028;-72
2023/05/18 13:40:45;;;;;;;8.27;3.95;;;;;;;16.75;40.97;102492.34;5093205;28;20475;-73
2023/05/18 13:43:11;;;;;;;11.48;4.35;;;;;;;16.76;41.36;102488.56;5095130;28;20028;-72
2023/05/18 13:45:36;;;;;;;10.23;4.25;;;;;;;16.89;42.03;102493.06;5095180;28;20444;-74
2023/05/18 13:48:06;;;;;;;11.65;4.20;;;;;;;17.08;41.12;102496.66;5094917;28;20024;-71
2023/05/18 13:50:32;;;;;;;8.20;3.80;;;;;;;17.05;39.14;102496.28;5095133;28;20116;-75
2023/05/18 13:52:57;;;;;;;11.93;4.15;;;;;;;17.09;38.58;102498.31;5089855;28;20111;-74
2023/05/18 13:55:23;;;;;;;8.95;3.88;;;;;;;17.16;38.99;102490.03;5076949;28;20395;-75
2023/05/18 13:57:48;;;;;;;9.52;3.70;;;;;;;17.24;38.67;102486.16;5094907;28;20114;-75
2023/05/18 14:00:15;;;;;;;13.18;4.35;;;;;;;17.21;39.10;102482.00;5094669;28;20031;-77
2023/05/18 14:02:42;;;;;;;10.15;4.07;;;;;;;17.18;40.05;102475.06;5088027;28;20398;-69
2023/05/18 14:05:08;;;;;;;12.82;3.78;;;;;;;17.42;40.71;102475.19;5114735;28;20460;-75
2023/05/18 14:07:35;;;;;;;11.20;3.83;;;;;;;17.44;39.87;102478.53;5105264;28;20093;-71
2023/05/18 14:10:01;;;;;;;10.80;4.00;;;;;;;17.50;38.80;102482.25;5094494;28;20032;-73
2023/05/18 14:12:26;;;;;;;10.00;3.90;;;;;;;17.38;40.30;102459.44;5093354;28;20028;-74
2023/05/18 14:14:52;;;;;;;9.32;3.78;;;;;;;17.44;40.57;102462.09;5127344;27;20039;-72
2023/05/18 14:17:17;;;;;;;9.13;3.80;;;;;;;17.44;39.72;102461.28;5094358;28;20541;-72
2023/05/18 14:19:42;;;;;;;11.32;3.53;;;;;;;17.47;40.05;102456.16;5093273;28;20039;-76
2023/05/18 14:22:07;;;;;;;12.45;4.22;;;;;;;17.62;39.33;102463.09;5086838;28;20490;-68
2023/05/18 14:24:33;;;;;;;10.45;4.18;;;;;;;17.50;38.36;102461.16;5089395;28;20027;-71
2023/05/18 14:26:58;;;;;;;15.95;4.20;;;;;;;17.58;38.52;102461.91;5092803;28;20467;-66
2023/05/18 14:29:23;;;;;;;9.73;3.45;;;;;;;17.41;40.01;102456.22;5093161;28;20069;-68
2023/05/18 14:31:49;;;;;;;11.50;4.07;;;;;;;17.51;39.89;102451.91;5076037;28;20035;-67
2023/05/18 14:34:14;;;;;;;14.68;4.25;;;;;;;17.61;40.04;102455.97;5092018;28;20027;-69
2023/05/18 14:36:39;;;;;;;15.63;3.75;;;;;;;17.59;39.31;102460.81;5092305;28;20089;-72
2023/05/18 14:39:05;;;;;;;12.35;3.83;;;;;;;17.69;38.48;102450.16;5093435;28;20111;-68
2023/05/18 14:41:30;;;;;;;11.77;3.97;;;;;;;17.62;38.77;102453.00;5093433;28;20074;-70
2023/05/18 14:43:56;;;;;;;8.23;3.60;;;;;;;17.62;38.26;102458.47;5093899;28;20028;-68
2023/05/18 14:46:21;;;;;;;11.13;3.95;;;;;;;17.71;38.40;102450.78;5090853;28;20032;-71
2023/05/18 14:48:46;;;;;;;13.95;4.28;;;;;;;17.78;38.67;102448.75;5093834;28;20024;-67
2023/05/18 14:51:12;;;;;;;11.15;3.85;;;;;;;17.97;38.17;102446.78;5091749;28;20032;-70
2023/05/18 14:53:38;;;;;;;9.63;3.42;;;;;;;17.99;38.12;102457.53;5099436;28;20031;-70
2023/05/18 14:56:07;;;;;;;9.18;3.42;;;;;;;18.08;37.67;102450.63;5113926;28;20161;-66
2023/05/18 14:58:33;;;;;;;7.72;3.53;;;;;;;18.16;38.10;102447.53;5100742;28;20028;-67
2023/05/18 15:00:58;;;;;;;10.57;3.85;;;;;;;18.30;39.17;102448.16;5093693;28;20040;-69
2023/05/18 15:03:23;;;;;;;10.65;3.90;;;;;;;18.42;38.18;102446.22;5113797;28;20027;-73
2023/05/18 15:05:48;;;;;;;10.85;3.30;;;;;;;18.69;37.50;102444.88;5098283;28;20126;-69
2023/05/18 15:08:14;;;;;;;12.27;3.75;;;;;;;18.77;35.33;102447.28;5093309;28;20111;-68
2023/05/18 15:10:39;;;;;;;10.13;3.55;;;;;;;18.65;35.71;102454.69;5093499;28;20027;-69
2023/05/18 15:13:04;;;;;;;11.27;4.00;;;;;;;18.41;36.15;102446.47;5093192;28;20024;-68
2023/05/18 15:15:30;;;;;;;11.82;3.80;;;;;;;18.47;36.95;102450.16;5092158;28;20032;-71
2023/05/18 15:17:55;;;;;;;11.60;3.90;;;;;;;18.76;36.52;102449.16;5092330;28;20097;-65
2023/05/18 15:20:22;;;;;;;9.90;3.63;;;;;;;19.40;35.20;102444.69;5089118;28;20034;-67
2023/05/18 15:22:48;;;;;;;13.07;4.75;;;;;;;20.16;33.49;102447.16;5093231;28;20027;-69
2023/05/18 15:25:13;;;;;;;8.63;3.45;;;;;;;20.53;33.48;102452.94;5091044;28;20024;-71
2023/05/18 15:27:39;;;;;;;12.25;3.38;;;;;;;20.78;33.21;102442.56;5092296;28;20028;-73
2023/05/18 15:30:10;;;;;;;10.77;3.93;;;;;;;20.96;33.03;102445.00;5093036;28;20379;-70
2023/05/18 15:32:38;;;;;;;11.23;3.70;;;;;;;21.14;32.74;102440.25;5093083;28;20258;-68
2023/05/18 15:35:04;;;;;;;8.98;3.25;;;;;;;21.28;31.90;102449.75;5108283;28;20115;-68
2023/05/18 15:37:30;;;;;;;10.63;4.18;;;;;;;21.47;31.52;102444.72;5090444;28;20032;-74
2023/05/18 15:39:55;;;;;;;9.55;3.22;;;;;;;21.51;30.94;102434.88;5109107;28;20228;-70
2023/05/18 15:42:21;;;;;;;14.30;4.15;;;;;;;21.04;31.52;102436.25;5089034;28;20093;-69
2023/05/18 15:44:46;;;;;;;12.00;3.63;;;;;;;21.12;32.46;102431.41;5091432;28;20071;-69
2023/05/18 15:47:11;;;;;;;10.23;3.75;;;;;;;21.25;32.12;102437.31;5102595;28;20076;-70
2023/05/18 15:49:37;;;;;;;8.93;3.70;;;;;;;21.10;31.79;102439.09;5113276;28;20136;-73
2023/05/18 15:52:02;;;;;;;9.70;4.05;;;;;;;21.08;31.75;102435.78;5077965;28;20077;-67
2023/05/18 15:54:27;;;;;;;9.57;4.00;;;;;;;20.80;32.53;102432.13;5092403;28;20035;-72
2023/05/18 15:56:53;;;;;;;13.32;4.72;;;;;;;20.68;32.22;102429.50;5092521;28;20032;-72
2023/05/18 15:59:18;;;;;;;10.98;4.40;;;;;;;20.50;32.50;102427.84;5090664;28;20028;-70
2023/05/18 16:01:44;;;;;;;7.30;3.38;;;;;;;20.09;32.52;102428.06;5098449;28;20554;-77
